sensor_id;sensor_type;location;lat;lon;timestamp;pressure;altitude;pressure_sealevel;temperature;humidity
77366;BME280;66430;50.182;11.704;2023-04-01T00:01:13;93063.02;;;10.09;43.85
77366;BME280;66430;50.182;11.704;2023-04-01T00:03:37;93062.52;;;10.31;43.48
77366;BME280;66430;50.182;11.704;2023-04-01T00:06:03;93060.20;;;10.31;43.43
77366;BME280;66430;50.182;11.704;2023-04-01T00:08:28;93056.01;;;10.29;43.97
77366;BME280;66430;50.182;11.704;2023-04-01T00:10:54;93052.74;;;10.30;43.77
77366;BME280;66430;50.182;11.704;2023-04-01T00:13:19;93053.55;;;9.97;44.49
77366;BME280;66430;50.182;11.704;2023-04-01T00:15:44;93052.85;;;9.81;44.09
77366;BME280;66430;50.182;11.704;2023-04-01T00:18:10;93048.80;;;9.94;44.44
77366;BME280;66430;50.182;11.704;2023-04-01T00:20:35;93048.22;;;10.13;44.19
77366;BME280;66430;50.182;11.704;2023-04-01T00:23:01;93047.16;;;9.97;44.59
77366;BME280;66430;50.182;11.704;2023-04-01T00:25:26;93050.41;;;10.20;43.87
77366;BME280;66430;50.182;11.704;2023-04-01T00:27:52;93045.16;;;10.19;43.85
77366;BME280;66430;50.182;11.704;2023-04-01T00:30:18;93045.15;;;9.94;44.22
77366;BME280;66430;50.182;11.704;2023-04-01T00:32:43;93049.37;;;10.33;43.72
77366;BME280;66430;50.182;11.704;2023-04-01T00:35:08;93054.60;;;10.34;43.50
77366;BME280;66430;50.182;11.704;2023-04-01T00:37:35;93050.93;;;10.12;43.90
77366;BME280;66430;50.182;11.704;2023-04-01T00:39:59;93049.47;;;10.23;44.02
77366;BME280;66430;50.182;11.704;2023-04-01T00:42:25;93048.53;;;10.45;43.33
77366;BME280;66430;50.182;11.704;2023-04-01T00:44:51;93047.29;;;10.45;43.00
77366;BME280;66430;50.182;11.704;2023-04-01T00:47:16;93041.39;;;10.07;42.89
77366;BME280;66430;50.182;11.704;2023-04-01T00:49:44;93045.07;;;10.61;42.83
77366;BME280;66430;50.182;11.704;2023-04-01T00:52:08;93040.15;;;10.38;43.46
77366;BME280;66430;50.182;11.704;2023-04-01T00:54:35;93045.75;;;10.47;43.32
77366;BME280;66430;50.182;11.704;2023-04-01T00:56:59;93045.78;;;10.02;43.45
77366;BME280;66430;50.182;11.704;2023-04-01T00:59:24;93042.82;;;10.09;43.52
77366;BME280;66430;50.182;11.704;2023-04-01T01:01:48;93039.67;;;10.03;43.53
77366;BME280;66430;50.182;11.704;2023-04-01T01:04:23;93037.17;;;9.84;43.34
77366;BME280;66430;50.182;11.704;2023-04-01T01:06:45;93035.25;;;10.38;43.18
77366;BME280;66430;50.182;11.704;2023-04-01T01:09:14;93034.42;;;10.61;43.04
77366;BME280;66430;50.182;11.704;2023-04-01T01:11:36;93031.87;;;10.25;42.97
77366;BME280;66430;50.182;11.704;2023-04-01T01:13:59;93027.66;;;10.34;43.13
77366;BME280;66430;50.182;11.704;2023-04-01T01:16:26;93026.30;;;9.87;43.88
77366;BME280;66430;50.182;11.704;2023-04-01T01:18:57;93024.02;;;10.10;43.52
77366;BME280;66430;50.182;11.704;2023-04-01T01:21:27;93027.64;;;9.83;43.58
77366;BME280;66430;50.182;11.704;2023-04-01T01:23:54;93026.22;;;10.10;43.65
77366;BME280;66430;50.182;11.704;2023-04-01T01:26:18;93028.38;;;9.87;43.90
77366;BME280;66430;50.182;11.704;2023-04-01T01:28:36;93028.21;;;10.40;43.21
77366;BME280;66430;50.182;11.704;2023-04-01T01:30:58;93027.81;;;10.23;43.10
77366;BME280;66430;50.182;11.704;2023-04-01T01:33:32;93020.48;;;10.49;42.80
77366;BME280;66430;50.182;11.704;2023-04-01T01:35:46;93018.42;;;10.57;42.80
77366;BME280;66430;50.182;11.704;2023-04-01T01:38:14;93028.69;;;10.37;43.20
77366;BME280;66430;50.182;11.704;2023-04-01T01:40:37;93021.20;;;10.50;42.88
77366;BME280;66430;50.182;11.704;2023-04-01T01:43:05;93019.76;;;10.49;42.75
77366;BME280;66430;50.182;11.704;2023-04-01T01:45:27;93017.89;;;10.26;43.10
77366;BME280;66430;50.182;11.704;2023-04-01T01:47:53;93023.26;;;10.06;43.43
77366;BME280;66430;50.182;11.704;2023-04-01T01:50:19;93020.73;;;10.47;42.57
77366;BME280;66430;50.182;11.704;2023-04-01T01:52:43;93022.60;;;10.36;43.05
77366;BME280;66430;50.182;11.704;2023-04-01T01:57:36;93025.09;;;10.25;43.28
77366;BME280;66430;50.182;11.704;2023-04-01T02:00:03;93019.69;;;9.98;43.08
77366;BME280;66430;50.182;11.704;2023-04-01T02:02:26;93021.87;;;10.19;43.20
77366;BME280;66430;50.182;11.704;2023-04-01T02:04:50;93018.41;;;10.30;43.24
77366;BME280;66430;50.182;11.704;2023-04-01T02:07:20;93022.76;;;10.22;43.00
77366;BME280;66430;50.182;11.704;2023-04-01T02:09:41;93021.56;;;10.42;42.87
77366;BME280;66430;50.182;11.704;2023-04-01T02:12:08;93022.95;;;10.39;42.81
77366;BME280;66430;50.182;11.704;2023-04-01T02:14:37;93026.55;;;10.36;42.71
77366;BME280;66430;50.182;11.704;2023-04-01T02:16:59;93024.96;;;10.46;42.53
77366;BME280;66430;50.182;11.704;2023-04-01T02:19:26;93028.40;;;10.16;42.97
77366;BME280;66430;50.182;11.704;2023-04-01T02:21:49;93027.96;;;10.48;42.77
77366;BME280;66430;50.182;11.704;2023-04-01T02:24:15;93031.53;;;10.15;43.42
77366;BME280;66430;50.182;11.704;2023-04-01T02:26:40;93023.07;;;10.38;42.98
77366;BME280;66430;50.182;11.704;2023-04-01T02:29:06;93026.64;;;10.52;42.64
77366;BME280;66430;50.182;11.704;2023-04-01T02:31:31;93022.05;;;10.28;42.77
77366;BME280;66430;50.182;11.704;2023-04-01T02:33:56;93021.20;;;10.30;42.52
77366;BME280;66430;50.182;11.704;2023-04-01T02:36:21;93025.38;;;10.62;42.49
77366;BME280;66430;50.182;11.704;2023-04-01T02:38:47;93022.00;;;10.19;42.53
77366;BME280;66430;50.182;11.704;2023-04-01T02:41:12;93026.58;;;10.20;42.44
77366;BME280;66430;50.182;11.704;2023-04-01T02:43:37;93030.17;;;10.68;42.53
77366;BME280;66430;50.182;11.704;2023-04-01T02:46:03;93030.73;;;10.21;42.86
77366;BME280;66430;50.182;11.704;2023-04-01T02:48:29;93027.95;;;10.18;42.80
77366;BME280;66430;50.182;11.704;2023-04-01T02:50:54;93034.18;;;10.24;42.85
77366;BME280;66430;50.182;11.704;2023-04-01T02:53:19;93036.99;;;10.12;43.44
77366;BME280;66430;50.182;11.704;2023-04-01T02:55:45;93038.87;;;10.24;43.04
77366;BME280;66430;50.182;11.704;2023-04-01T02:58:10;93038.99;;;10.03;43.36
77366;BME280;66430;50.182;11.704;2023-04-01T03:00:36;93039.03;;;9.97;43.13
77366;BME280;66430;50.182;11.704;2023-04-01T03:03:01;93042.23;;;10.31;42.72
77366;BME280;66430;50.182;11.704;2023-04-01T03:05:26;93038.23;;;10.46;42.53
77366;BME280;66430;50.182;11.704;2023-04-01T03:07:53;93044.15;;;10.48;43.10
77366;BME280;66430;50.182;11.704;2023-04-01T03:10:18;93042.89;;;10.23;42.77
77366;BME280;66430;50.182;11.704;2023-04-01T03:12:43;93038.87;;;10.24;42.87
77366;BME280;66430;50.182;11.704;2023-04-01T03:15:10;93043.71;;;9.92;42.87
77366;BME280;66430;50.182;11.704;2023-04-01T03:17:34;93039.03;;;9.56;43.40
77366;BME280;66430;50.182;11.704;2023-04-01T03:19:59;93044.78;;;10.17;42.72
77366;BME280;66430;50.182;11.704;2023-04-01T03:22:25;93044.14;;;10.18;42.83
77366;BME280;66430;50.182;11.704;2023-04-01T03:24:50;93042.25;;;9.95;42.48
77366;BME280;66430;50.182;11.704;2023-04-01T03:27:16;93041.21;;;10.31;42.43
77366;BME280;66430;50.182;11.704;2023-04-01T03:29:41;93040.85;;;10.25;42.71
77366;BME280;66430;50.182;11.704;2023-04-01T03:32:07;93042.87;;;10.03;43.10
77366;BME280;66430;50.182;11.704;2023-04-01T03:34:32;93044.71;;;10.39;42.88
77366;BME280;66430;50.182;11.704;2023-04-01T03:36:58;93048.00;;;10.11;43.06
77366;BME280;66430;50.182;11.704;2023-04-01T03:39:23;93050.67;;;10.32;43.13
77366;BME280;66430;50.182;11.704;2023-04-01T03:41:49;93055.97;;;10.29;42.73
77366;BME280;66430;50.182;11.704;2023-04-01T03:44:14;93054.61;;;10.16;42.91
77366;BME280;66430;50.182;11.704;2023-04-01T03:46:39;93055.80;;;10.07;42.82
77366;BME280;66430;50.182;11.704;2023-04-01T03:49:06;93060.83;;;10.30;42.49
77366;BME280;66430;50.182;11.704;2023-04-01T03:51:30;93058.48;;;10.09;42.89
77366;BME280;66430;50.182;11.704;2023-04-01T03:53:56;93057.17;;;9.99;43.13
77366;BME280;66430;50.182;11.704;2023-04-01T03:56:21;93055.29;;;10.32;43.07
77366;BME280;66430;50.182;11.704;2023-04-01T03:58:46;93056.59;;;9.96;42.99
77366;BME280;66430;50.182;11.704;2023-04-01T04:01:15;93056.79;;;10.23;42.66
77366;BME280;66430;50.182;11.704;2023-04-01T04:03:39;93056.05;;;10.25;42.61
77366;BME280;66430;50.182;11.704;2023-04-01T04:06:03;93055.91;;;10.05;43.08
77366;BME280;66430;50.182;11.704;2023-04-01T04:08:28;93053.92;;;9.95;42.74
77366;BME280;66430;50.182;11.704;2023-04-01T04:10:55;93061.30;;;10.04;42.82
77366;BME280;66430;50.182;11.704;2023-04-01T04:13:20;93062.32;;;10.21;42.87
77366;BME280;66430;50.182;11.704;2023-04-01T04:15:45;93057.79;;;10.02;42.71
77366;BME280;66430;50.182;11.704;2023-04-01T04:18:10;93057.27;;;10.11;42.66
77366;BME280;66430;50.182;11.704;2023-04-01T04:20:36;93053.26;;;10.39;42.59
77366;BME280;66430;50.182;11.704;2023-04-01T04:23:01;93054.61;;;9.88;43.05
77366;BME280;66430;50.182;11.704;2023-04-01T04:25:27;93059.05;;;9.95;42.91
77366;BME280;66430;50.182;11.704;2023-04-01T04:27:53;93058.54;;;9.89;42.80
77366;BME280;66430;50.182;11.704;2023-04-01T04:30:18;93058.96;;;9.95;42.74
77366;BME280;66430;50.182;11.704;2023-04-01T04:32:43;93057.88;;;9.84;42.91
77366;BME280;66430;50.182;11.704;2023-04-01T04:35:09;93060.62;;;9.55;43.49
77366;BME280;66430;50.182;11.704;2023-04-01T04:37:34;93067.48;;;9.86;43.15
77366;BME280;66430;50.182;11.704;2023-04-01T04:39:59;93073.45;;;10.18;43.07
77366;BME280;66430;50.182;11.704;2023-04-01T04:42:28;93071.45;;;9.78;42.87
77366;BME280;66430;50.182;11.704;2023-04-01T04:44:50;93064.83;;;9.94;42.89
77366;BME280;66430;50.182;11.704;2023-04-01T04:47:16;93067.62;;;9.78;43.02
77366;BME280;66430;50.182;11.704;2023-04-01T04:49:41;93071.41;;;10.18;42.80
77366;BME280;66430;50.182;11.704;2023-04-01T04:52:07;93066.88;;;10.38;42.56
77366;BME280;66430;50.182;11.704;2023-04-01T04:54:32;93073.16;;;9.83;42.97
77366;BME280;66430;50.182;11.704;2023-04-01T04:56:58;93074.30;;;10.33;42.77
77366;BME280;66430;50.182;11.704;2023-04-01T04:59:23;93073.66;;;10.28;42.88
77366;BME280;66430;50.182;11.704;2023-04-01T05:01:49;93075.37;;;9.77;42.58
77366;BME280;66430;50.182;11.704;2023-04-01T05:04:14;93078.09;;;9.46;43.18
77366;BME280;66430;50.182;11.704;2023-04-01T05:06:49;93077.12;;;9.87;43.01
77366;BME280;66430;50.182;11.704;2023-04-01T05:09:05;93080.46;;;9.98;42.83
77366;BME280;66430;50.182;11.704;2023-04-01T05:11:31;93073.27;;;9.59;43.58
77366;BME280;66430;50.182;11.704;2023-04-01T05:13:56;93075.30;;;9.77;43.19
77366;BME280;66430;50.182;11.704;2023-04-01T05:16:22;93076.76;;;9.98;43.12
77366;BME280;66430;50.182;11.704;2023-04-01T05:18:47;93073.65;;;9.76;42.82
77366;BME280;66430;50.182;11.704;2023-04-01T05:21:14;93074.35;;;9.92;42.96
77366;BME280;66430;50.182;11.704;2023-04-01T05:23:38;93072.62;;;9.82;42.83
77366;BME280;66430;50.182;11.704;2023-04-01T05:26:05;93075.98;;;10.57;42.61
77366;BME280;66430;50.182;11.704;2023-04-01T05:28:29;93075.15;;;9.94;42.87
77366;BME280;66430;50.182;11.704;2023-04-01T05:30:54;93077.56;;;10.09;42.51
77366;BME280;66430;50.182;11.704;2023-04-01T05:33:20;93075.23;;;10.09;42.49
77366;BME280;66430;50.182;11.704;2023-04-01T05:35:46;93077.15;;;10.22;42.25
77366;BME280;66430;50.182;11.704;2023-04-01T05:38:11;93073.68;;;9.97;42.22
77366;BME280;66430;50.182;11.704;2023-04-01T05:40:37;93077.05;;;10.10;42.55
77366;BME280;66430;50.182;11.704;2023-04-01T05:43:02;93072.98;;;9.93;42.61
77366;BME280;66430;50.182;11.704;2023-04-01T05:45:27;93072.25;;;9.90;42.48
77366;BME280;66430;50.182;11.704;2023-04-01T05:47:54;93071.73;;;10.17;42.61
77366;BME280;66430;50.182;11.704;2023-04-01T05:50:18;93073.45;;;9.96;43.04
77366;BME280;66430;50.182;11.704;2023-04-01T05:52:44;93070.63;;;10.25;42.72
77366;BME280;66430;50.182;11.704;2023-04-01T05:55:09;93071.46;;;10.14;42.49
77366;BME280;66430;50.182;11.704;2023-04-01T05:57:40;93075.25;;;10.21;42.78
77366;BME280;66430;50.182;11.704;2023-04-01T06:00:00;93079.19;;;9.86;42.95
77366;BME280;66430;50.182;11.704;2023-04-01T06:02:26;93078.31;;;9.97;42.72
77366;BME280;66430;50.182;11.704;2023-04-01T06:05:03;93080.05;;;10.34;42.57
77366;BME280;66430;50.182;11.704;2023-04-01T06:07:18;93078.41;;;9.90;42.74
77366;BME280;66430;50.182;11.704;2023-04-01T06:09:43;93081.43;;;10.13;42.66
77366;BME280;66430;50.182;11.704;2023-04-01T06:14:37;93087.60;;;10.39;42.09
77366;BME280;66430;50.182;11.704;2023-04-01T06:17:10;93084.78;;;10.25;42.15
77366;BME280;66430;50.182;11.704;2023-04-01T06:19:32;93084.34;;;10.16;42.85
77366;BME280;66430;50.182;11.704;2023-04-01T06:22:04;93086.63;;;10.47;42.65
77366;BME280;66430;50.182;11.704;2023-04-01T06:24:26;93084.56;;;10.28;42.85
77366;BME280;66430;50.182;11.704;2023-04-01T06:26:46;93085.09;;;10.27;42.47
77366;BME280;66430;50.182;11.704;2023-04-01T06:29:23;93085.19;;;10.31;42.43
77366;BME280;66430;50.182;11.704;2023-04-01T06:31:40;93089.28;;;10.20;42.54
77366;BME280;66430;50.182;11.704;2023-04-01T06:34:10;93093.39;;;10.10;42.99
77366;BME280;66430;50.182;11.704;2023-04-01T06:36:35;93093.63;;;10.34;42.78
77366;BME280;66430;50.182;11.704;2023-04-01T06:38:57;93090.47;;;10.07;42.29
77366;BME280;66430;50.182;11.704;2023-04-01T06:43:47;93099.33;;;10.44;42.38
77366;BME280;66430;50.182;11.704;2023-04-01T06:46:11;93096.40;;;10.17;43.15
77366;BME280;66430;50.182;11.704;2023-04-01T06:48:40;93099.66;;;9.93;42.89
77366;BME280;66430;50.182;11.704;2023-04-01T06:51:01;93101.67;;;10.30;42.80
77366;BME280;66430;50.182;11.704;2023-04-01T06:53:28;93097.29;;;10.37;42.79
77366;BME280;66430;50.182;11.704;2023-04-01T06:55:47;93102.96;;;10.36;42.92
77366;BME280;66430;50.182;11.704;2023-04-01T06:58:16;93104.65;;;10.02;43.06
77366;BME280;66430;50.182;11.704;2023-04-01T07:00:39;93102.24;;;10.11;43.38
77366;BME280;66430;50.182;11.704;2023-04-01T07:03:08;93104.09;;;9.98;43.68
77366;BME280;66430;50.182;11.704;2023-04-01T07:05:30;93101.83;;;10.31;43.50
77366;BME280;66430;50.182;11.704;2023-04-01T07:07:55;93099.19;;;10.25;43.39
77366;BME280;66430;50.182;11.704;2023-04-01T07:10:23;93104.65;;;10.41;42.98
77366;BME280;66430;50.182;11.704;2023-04-01T07:12:47;93102.93;;;10.20;42.86
77366;BME280;66430;50.182;11.704;2023-04-01T07:15:18;93103.24;;;9.80;43.59
77366;BME280;66430;50.182;11.704;2023-04-01T07:17:36;93104.35;;;10.44;43.09
77366;BME280;66430;50.182;11.704;2023-04-01T07:20:05;93102.99;;;10.48;43.22
77366;BME280;66430;50.182;11.704;2023-04-01T07:22:29;93106.40;;;10.57;43.19
77366;BME280;66430;50.182;11.704;2023-04-01T07:24:53;93102.85;;;10.58;43.16
77366;BME280;66430;50.182;11.704;2023-04-01T07:27:17;93105.22;;;10.36;43.52
77366;BME280;66430;50.182;11.704;2023-04-01T07:29:42;93102.82;;;10.69;43.24
77366;BME280;66430;50.182;11.704;2023-04-01T07:32:16;93105.13;;;10.29;43.53
77366;BME280;66430;50.182;11.704;2023-04-01T07:34:38;93105.63;;;10.44;43.43
77366;BME280;66430;50.182;11.704;2023-04-01T07:37:07;93107.38;;;10.58;43.10
77366;BME280;66430;50.182;11.704;2023-04-01T07:39:34;93112.39;;;10.28;43.09
77366;BME280;66430;50.182;11.704;2023-04-01T07:41:55;93112.08;;;10.00;43.24
77366;BME280;66430;50.182;11.704;2023-04-01T07:44:22;93114.65;;;10.77;42.71
77366;BME280;66430;50.182;11.704;2023-04-01T07:46:55;93114.49;;;10.20;43.16
77366;BME280;66430;50.182;11.704;2023-04-01T07:49:10;93117.95;;;10.64;42.72
77366;BME280;66430;50.182;11.704;2023-04-01T07:51:40;93115.64;;;10.47;42.85
77366;BME280;66430;50.182;11.704;2023-04-01T07:54:02;93124.49;;;10.44;42.81
77366;BME280;66430;50.182;11.704;2023-04-01T07:56:28;93120.40;;;10.13;42.98
77366;BME280;66430;50.182;11.704;2023-04-01T07:58:56;93121.54;;;10.56;43.07
77366;BME280;66430;50.182;11.704;2023-04-01T08:01:19;93121.63;;;10.14;42.87
77366;BME280;66430;50.182;11.704;2023-04-01T08:03:51;93122.04;;;10.63;42.90
77366;BME280;66430;50.182;11.704;2023-04-01T08:06:08;93123.07;;;9.89;43.57
77366;BME280;66430;50.182;11.704;2023-04-01T08:08:38;93126.55;;;10.30;43.18
77366;BME280;66430;50.182;11.704;2023-04-01T08:10:59;93122.23;;;10.19;43.50
77366;BME280;66430;50.182;11.704;2023-04-01T08:13:29;93123.87;;;10.39;43.95
77366;BME280;66430;50.182;11.704;2023-04-01T08:15:51;93128.71;;;10.71;43.50
77366;BME280;66430;50.182;11.704;2023-04-01T08:18:21;93124.32;;;10.29;43.27
77366;BME280;66430;50.182;11.704;2023-04-01T08:20:40;93124.22;;;10.45;43.74
77366;BME280;66430;50.182;11.704;2023-04-01T08:23:06;93127.85;;;10.87;43.16
77366;BME280;66430;50.182;11.704;2023-04-01T08:25:29;93129.75;;;10.96;43.29
77366;BME280;66430;50.182;11.704;2023-04-01T08:27:58;93126.71;;;10.98;43.28
77366;BME280;66430;50.182;11.704;2023-04-01T08:30:21;93131.67;;;10.62;43.68
77366;BME280;66430;50.182;11.704;2023-04-01T08:32:49;93129.58;;;10.83;43.04
77366;BME280;66430;50.182;11.704;2023-04-01T08:35:17;93134.02;;;10.30;44.07
77366;BME280;66430;50.182;11.704;2023-04-01T08:37:38;93131.44;;;10.21;43.96
77366;BME280;66430;50.182;11.704;2023-04-01T08:40:13;93131.19;;;10.23;43.62
77366;BME280;66430;50.182;11.704;2023-04-01T08:42:46;93130.48;;;10.51;44.04
77366;BME280;66430;50.182;11.704;2023-04-01T08:45:03;93130.47;;;10.55;43.70
77366;BME280;66430;50.182;11.704;2023-04-01T08:47:25;93132.09;;;10.41;43.52
77366;BME280;66430;50.182;11.704;2023-04-01T08:49:55;93124.16;;;10.68;43.46
77366;BME280;66430;50.182;11.704;2023-04-01T08:52:22;93127.95;;;10.54;43.67
77366;BME280;66430;50.182;11.704;2023-04-01T08:54:48;93128.11;;;10.73;43.35
77366;BME280;66430;50.182;11.704;2023-04-01T08:57:04;93128.26;;;10.69;44.12
77366;BME280;66430;50.182;11.704;2023-04-01T08:59:35;93123.30;;;10.61;43.37
77366;BME280;66430;50.182;11.704;2023-04-01T09:02:03;93128.69;;;10.68;43.57
77366;BME280;66430;50.182;11.704;2023-04-01T09:04:25;93125.38;;;10.92;43.17
77366;BME280;66430;50.182;11.704;2023-04-01T09:06:51;93129.67;;;10.75;43.31
77366;BME280;66430;50.182;11.704;2023-04-01T09:09:21;93129.63;;;10.56;43.30
77366;BME280;66430;50.182;11.704;2023-04-01T09:11:43;93125.09;;;10.80;43.12
77366;BME280;66430;50.182;11.704;2023-04-01T09:14:19;93130.04;;;10.86;43.70
77366;BME280;66430;50.182;11.704;2023-04-01T09:19:04;93127.19;;;10.63;43.66
77366;BME280;66430;50.182;11.704;2023-04-01T09:21:24;93128.78;;;10.66;43.44
77366;BME280;66430;50.182;11.704;2023-04-01T09:23:52;93127.35;;;11.01;43.18
77366;BME280;66430;50.182;11.704;2023-04-01T09:26:18;93123.69;;;11.05;43.07
77366;BME280;66430;50.182;11.704;2023-04-01T09:28:37;93128.34;;;10.94;43.31
77366;BME280;66430;50.182;11.704;2023-04-01T09:35:47;93134.14;;;11.19;43.27
77366;BME280;66430;50.182;11.704;2023-04-01T09:38:21;93137.24;;;10.75;43.44
77366;BME280;66430;50.182;11.704;2023-04-01T09:40:42;93131.93;;;10.97;43.20
77366;BME280;66430;50.182;11.704;2023-04-01T09:43:20;93134.68;;;10.80;43.58
77366;BME280;66430;50.182;11.704;2023-04-01T09:45:40;93131.75;;;11.18;43.21
77366;BME280;66430;50.182;11.704;2023-04-01T09:48:05;93134.30;;;11.32;43.06
77366;BME280;66430;50.182;11.704;2023-04-01T09:50:32;93129.29;;;11.40;42.90
77366;BME280;66430;50.182;11.704;2023-04-01T09:52:49;93133.81;;;11.32;42.55
77366;BME280;66430;50.182;11.704;2023-04-01T09:55:19;93131.15;;;10.99;42.81
77366;BME280;66430;50.182;11.704;2023-04-01T10:12:18;93130.07;;;11.75;42.39
77366;BME280;66430;50.182;11.704;2023-04-01T10:17:20;93137.30;;;11.37;42.22
77366;BME280;66430;50.182;11.704;2023-04-01T10:24:23;93135.86;;;11.32;42.43
77366;BME280;66430;50.182;11.704;2023-04-01T10:29:35;93138.41;;;11.11;42.41
77366;BME280;66430;50.182;11.704;2023-04-01T10:31:52;93138.67;;;11.38;42.44
77366;BME280;66430;50.182;11.704;2023-04-01T10:36:47;93136.18;;;11.50;42.32
77366;BME280;66430;50.182;11.704;2023-04-01T10:44:01;93144.75;;;11.66;41.70
77366;BME280;66430;50.182;11.704;2023-04-01T10:48:43;93139.37;;;11.30;42.35
77366;BME280;66430;50.182;11.704;2023-04-01T10:51:08;93136.34;;;11.74;42.02
77366;BME280;66430;50.182;11.704;2023-04-01T10:53:38;93135.66;;;11.52;42.02
77366;BME280;66430;50.182;11.704;2023-04-01T11:17:54;93138.30;;;11.32;42.82
77366;BME280;66430;50.182;11.704;2023-04-01T11:20:16;93134.33;;;11.78;42.26
77366;BME280;66430;50.182;11.704;2023-04-01T11:22:35;93137.34;;;11.66;42.27
77366;BME280;66430;50.182;11.704;2023-04-01T11:25:05;93137.95;;;11.52;42.23
77366;BME280;66430;50.182;11.704;2023-04-01T11:27:27;93138.91;;;11.45;42.65
77366;BME280;66430;50.182;11.704;2023-04-01T11:29:53;93135.72;;;11.39;42.46
77366;BME280;66430;50.182;11.704;2023-04-01T11:32:16;93137.02;;;11.55;42.63
77366;BME280;66430;50.182;11.704;2023-04-01T11:34:48;93136.46;;;11.27;42.41
77366;BME280;66430;50.182;11.704;2023-04-01T11:37:05;93138.63;;;11.85;42.56
77366;BME280;66430;50.182;11.704;2023-04-01T11:39:31;93140.26;;;11.93;42.46
77366;BME280;66430;50.182;11.704;2023-04-01T11:41:55;93136.37;;;11.43;43.15
77366;BME280;66430;50.182;11.704;2023-04-01T11:44:17;93138.20;;;11.66;42.80
77366;BME280;66430;50.182;11.704;2023-04-01T11:51:44;93136.52;;;11.84;42.05
77366;BME280;66430;50.182;11.704;2023-04-01T11:54:04;93139.72;;;11.94;42.13
77366;BME280;66430;50.182;11.704;2023-04-01T11:56:34;93138.56;;;12.27;42.02
77366;BME280;66430;50.182;11.704;2023-04-01T11:59:02;93141.44;;;11.82;42.23
77366;BME280;66430;50.182;11.704;2023-04-01T12:01:24;93141.46;;;12.25;42.56
77366;BME280;66430;50.182;11.704;2023-04-01T12:03:50;93139.09;;;11.82;42.32
77366;BME280;66430;50.182;11.704;2023-04-01T12:06:08;93139.65;;;11.86;42.12
77366;BME280;66430;50.182;11.704;2023-04-01T12:08:38;93144.64;;;12.09;42.41
77366;BME280;66430;50.182;11.704;2023-04-01T12:10:59;93140.77;;;11.85;42.53
77366;BME280;66430;50.182;11.704;2023-04-01T12:13:30;93148.58;;;11.95;42.70
77366;BME280;66430;50.182;11.704;2023-04-01T12:15:58;93146.24;;;12.36;42.32
77366;BME280;66430;50.182;11.704;2023-04-01T12:18:15;93144.52;;;12.10;42.26
77366;BME280;66430;50.182;11.704;2023-04-01T12:20:43;93144.76;;;12.44;42.25
77366;BME280;66430;50.182;11.704;2023-04-01T12:23:13;93144.87;;;11.94;42.47
77366;BME280;66430;50.182;11.704;2023-04-01T12:25:38;93147.27;;;12.58;42.38
77366;BME280;66430;50.182;11.704;2023-04-01T12:28:02;93152.40;;;11.66;42.37
77366;BME280;66430;50.182;11.704;2023-04-01T12:32:49;93152.39;;;12.03;41.83
77366;BME280;66430;50.182;11.704;2023-04-01T12:35:21;93149.40;;;12.17;42.09
77366;BME280;66430;50.182;11.704;2023-04-01T12:37:41;93152.21;;;12.12;42.43
77366;BME280;66430;50.182;11.704;2023-04-01T12:42:33;93156.92;;;11.76;42.09
77366;BME280;66430;50.182;11.704;2023-04-01T12:45:02;93153.10;;;12.10;42.25
77366;BME280;66430;50.182;11.704;2023-04-01T12:49:56;93156.18;;;12.12;41.66
77366;BME280;66430;50.182;11.704;2023-04-01T12:52:09;93158.40;;;11.92;42.24
77366;BME280;66430;50.182;11.704;2023-04-01T12:57:08;93158.63;;;11.62;42.52
77366;BME280;66430;50.182;11.704;2023-04-01T13:02:00;93150.93;;;12.36;42.85
77366;BME280;66430;50.182;11.704;2023-04-01T13:06:53;93153.25;;;12.52;42.79
77366;BME280;66430;50.182;11.704;2023-04-01T13:09:13;93150.96;;;12.89;42.51
77366;BME280;66430;50.182;11.704;2023-04-01T13:11:40;93153.79;;;12.86;42.61
77366;BME280;66430;50.182;11.704;2023-04-01T13:14:20;93154.55;;;12.31;42.72
77366;BME280;66430;50.182;11.704;2023-04-01T13:16:22;93155.19;;;12.80;42.37
77366;BME280;66430;50.182;11.704;2023-04-01T13:18:56;93157.13;;;12.47;42.93
77366;BME280;66430;50.182;11.704;2023-04-01T13:21:16;93158.19;;;12.30;42.65
77366;BME280;66430;50.182;11.704;2023-04-01T13:23:48;93161.52;;;12.33;42.44
77366;BME280;66430;50.182;11.704;2023-04-01T13:26:10;93164.82;;;12.28;42.96
77366;BME280;66430;50.182;11.704;2023-04-01T13:28:30;93166.94;;;12.19;42.98
77366;BME280;66430;50.182;11.704;2023-04-01T13:30:59;93167.54;;;12.22;42.95
77366;BME280;66430;50.182;11.704;2023-04-01T13:33:27;93163.89;;;12.69;43.17
77366;BME280;66430;50.182;11.704;2023-04-01T13:35:49;93166.81;;;12.48;42.72
77366;BME280;66430;50.182;11.704;2023-04-01T13:38:24;93165.47;;;12.40;44.01
77366;BME280;66430;50.182;11.704;2023-04-01T13:40:42;93166.93;;;12.62;43.11
77366;BME280;66430;50.182;11.704;2023-04-01T13:43:04;93165.74;;;12.78;42.89
77366;BME280;66430;50.182;11.704;2023-04-01T13:45:30;93168.61;;;12.46;43.04
77366;BME280;66430;50.182;11.704;2023-04-01T13:48:05;93172.39;;;12.54;42.67
77366;BME280;66430;50.182;11.704;2023-04-01T13:50:26;93173.25;;;12.29;42.89
77366;BME280;66430;50.182;11.704;2023-04-01T13:52:56;93175.27;;;12.56;42.99
77366;BME280;66430;50.182;11.704;2023-04-01T13:57:44;93175.79;;;12.73;42.91
77366;BME280;66430;50.182;11.704;2023-04-01T14:00:10;93175.19;;;12.71;42.51
77366;BME280;66430;50.182;11.704;2023-04-01T14:02:49;93179.05;;;12.99;42.42
77366;BME280;66430;50.182;11.704;2023-04-01T14:05:03;93175.42;;;12.69;42.02
77366;BME280;66430;50.182;11.704;2023-04-01T14:07:23;93177.69;;;12.68;41.79
77366;BME280;66430;50.182;11.704;2023-04-01T14:09:47;93175.91;;;12.78;42.05
77366;BME280;66430;50.182;11.704;2023-04-01T14:12:10;93180.22;;;12.63;41.58
77366;BME280;66430;50.182;11.704;2023-04-01T14:14:43;93176.64;;;12.91;42.13